Terminal Aerodrome Forecast
Issued by NWS

Home | Current Version | Previous Version | Text Only | Print | Product List | Glossary Off
Versions: 1 2 3 4 5 6 7 8 9 10 11 12 13 14 15 16 17 18 19 20 21 22

000
FTUS43 KBIS 182300
TAFJMS
TAF
KJMS 182335Z 1900/1924 17007KT P6SM OVC007
      TEMPO 1909/1913 3SM BR OVC004
     FM191700 17006KT P6SM SCT100=

USA.gov is the U.S. government's official web portal to all federal, state and local government web resources and services.